Time;durP1;ratioP1;P1;durP2;ratioP2;P2;SDS_P1;SDS_P2;PMS_P1;PMS_P2;Temp;Humidity;BMP_temperature;BMP_pressure;BME280_temperature;BME280_humidity;BME280_pressure;Samples;Min_cycle;Max_cycle;Signal;HPM_P1;HPM_P2
2022/08/29 00:00:06;;;;;;;0.20;0.20;;;;;;;;;;5053780;28;20526;-73
2022/08/29 00:02:32;;;;;;;0.20;0.20;;;;;;;;;;5053647;28;20103;-74
2022/08/29 00:04:57;;;;;;;0.20;0.20;;;;;;;;;;5053305;28;20124;-74
2022/08/29 00:07:23;;;;;;;0.20;0.20;;;;;;;;;;5053716;28;20024;-74
2022/08/29 00:09:48;;;;;;;0.90;0.82;;;;;;;;;;5053582;28;20064;-74
2022/08/29 00:12:14;;;;;;;0.55;0.50;;;;;;;;;;5053413;28;20594;-74
2022/08/29 00:14:39;;;;;;;0.80;0.63;;;;;;;;;;5053364;28;20033;-74
2022/08/29 00:17:05;;;;;;;0.20;0.20;;;;;;;;;;5053573;28;20064;-74
2022/08/29 00:19:30;;;;;;;0.20;0.20;;;;;;;;;;5053220;28;20464;-74
2022/08/29 00:21:56;;;;;;;0.20;0.20;;;;;;;;;;5053302;28;20373;-74
2022/08/29 00:24:21;;;;;;;0.30;0.30;;;;;;;;;;5053250;28;20037;-73
2022/08/29 00:26:47;;;;;;;0.20;0.20;;;;;;;;;;5053087;28;20096;-74
2022/08/29 00:29:12;;;;;;;0.20;0.20;;;;;;;;;;5053180;28;20033;-74
2022/08/29 00:31:38;;;;;;;0.20;0.20;;;;;;;;;;5053166;28;20064;-75
2022/08/29 00:34:03;;;;;;;0.20;0.20;;;;;;;;;;5053251;28;20048;-74
2022/08/29 00:36:29;;;;;;;0.63;0.50;;;;;;;;;;5053176;28;20036;-74
2022/08/29 00:38:54;;;;;;;0.30;0.30;;;;;;;;;;5052909;28;20424;-74
2022/08/29 00:41:20;;;;;;;0.30;0.30;;;;;;;;;;5052510;28;20052;-74
2022/08/29 00:43:46;;;;;;;0.20;0.20;;;;;;;;;;5052095;28;20044;-75
2022/08/29 00:46:27;;;;;;;0.40;0.40;;;;;;;;;;5051923;28;20469;-74
2022/08/29 00:48:57;;;;;;;0.28;0.28;;;;;;;;;;5053325;28;20491;-74
2022/08/29 00:51:23;;;;;;;0.20;0.20;;;;;;;;;;5053434;28;20060;-76
2022/08/29 00:53:56;;;;;;;0.20;0.20;;;;;;;;;;5035349;28;20052;-74
2022/08/29 00:56:23;;;;;;;0.20;0.20;;;;;;;;;;5053181;28;20472;-74
2022/08/29 00:58:52;;;;;;;0.47;0.47;;;;;;;;;;5052746;28;20021;-76
2022/08/29 01:01:17;;;;;;;0.43;0.43;;;;;;;;;;5052973;28;20029;-74
2022/08/29 01:03:43;;;;;;;0.20;0.20;;;;;;;;;;5035237;28;20480;-75
2022/08/29 01:06:10;;;;;;;0.20;0.20;;;;;;;;;;5053002;28;20432;-74
2022/08/29 01:08:35;;;;;;;0.30;0.30;;;;;;;;;;5052990;28;20059;-75
2022/08/29 01:13:47;;;;;;;0.10;0.10;;;;;;;;;;5053070;28;20033;-72
2022/08/29 01:16:13;;;;;;;0.55;0.55;;;;;;;;;;5052948;28;20024;-74
2022/08/29 01:18:39;;;;;;;0.30;0.30;;;;;;;;;;5052868;28;20025;-74
2022/08/29 01:21:14;;;;;;;0.20;0.20;;;;;;;;;;5052513;28;20557;-75
2022/08/29 01:23:44;;;;;;;0.20;0.20;;;;;;;;;;5052990;28;20060;-74
2022/08/29 01:26:10;;;;;;;0.45;0.40;;;;;;;;;;5052414;28;20496;-75
2022/08/29 01:28:38;;;;;;;0.20;0.20;;;;;;;;;;5052506;28;20119;-73
2022/08/29 01:31:06;;;;;;;0.20;0.20;;;;;;;;;;5052782;28;20033;-75
2022/08/29 01:33:43;;;;;;;0.20;0.20;;;;;;;;;;5052624;28;20021;-74
2022/08/29 01:36:09;;;;;;;0.52;0.52;;;;;;;;;;5052671;28;20029;-74
2022/08/29 01:38:36;;;;;;;0.20;0.20;;;;;;;;;;5052796;28;20064;-74
2022/08/29 01:41:02;;;;;;;0.20;0.20;;;;;;;;;;5052046;28;20465;-75
2022/08/29 01:43:28;;;;;;;0.40;0.40;;;;;;;;;;5052506;28;20086;-73
2022/08/29 01:45:54;;;;;;;0.32;0.32;;;;;;;;;;5052520;28;20069;-73
2022/08/29 01:48:20;;;;;;;0.70;0.60;;;;;;;;;;5052460;28;20075;-75
2022/08/29 01:50:46;;;;;;;0.20;0.20;;;;;;;;;;5052820;28;20025;-73
2022/08/29 01:53:13;;;;;;;0.30;0.30;;;;;;;;;;5052816;28;20399;-73
2022/08/29 01:55:39;;;;;;;1.17;1.08;;;;;;;;;;5056182;28;20036;-73
2022/08/29 01:58:06;;;;;;;0.63;0.63;;;;;;;;;;5056206;28;20033;-74
2022/08/29 02:00:34;;;;;;;3.17;2.92;;;;;;;;;;5038781;28;20084;-74
2022/08/29 02:03:00;;;;;;;0.77;0.52;;;;;;;;;;5055855;28;20032;-74
2022/08/29 02:05:28;;;;;;;0.30;0.30;;;;;;;;;;5056156;28;20468;-74
2022/08/29 02:07:53;;;;;;;0.20;0.20;;;;;;;;;;5056148;28;20057;-74
2022/08/29 02:10:19;;;;;;;0.20;0.20;;;;;;;;;;5055955;28;20067;-74
2022/08/29 02:12:45;;;;;;;0.45;0.45;;;;;;;;;;5055367;28;20029;-74
2022/08/29 02:15:10;;;;;;;0.20;0.20;;;;;;;;;;5055800;28;20392;-74
2022/08/29 02:17:37;;;;;;;0.20;0.20;;;;;;;;;;5055674;28;20119;-74
2022/08/29 02:20:06;;;;;;;0.30;0.30;;;;;;;;;;5038142;28;20112;-74
2022/08/29 02:22:31;;;;;;;0.30;0.30;;;;;;;;;;5055892;28;20025;-74
2022/08/29 02:24:57;;;;;;;1.75;0.40;;;;;;;;;;5055081;28;20047;-74
2022/08/29 02:27:23;;;;;;;0.30;0.30;;;;;;;;;;5055745;28;20070;-75
2022/08/29 02:29:49;;;;;;;0.30;0.30;;;;;;;;;;5037572;28;20032;-74
2022/08/29 02:32:15;;;;;;;0.20;0.20;;;;;;;;;;5055442;28;20469;-76
2022/08/29 02:34:44;;;;;;;0.20;0.20;;;;;;;;;;5055374;28;20377;-74
2022/08/29 02:37:11;;;;;;;0.20;0.20;;;;;;;;;;5021273;28;20029;-74
2022/08/29 02:39:36;;;;;;;0.30;0.30;;;;;;;;;;5055545;28;20017;-74
2022/08/29 02:42:03;;;;;;;0.20;0.20;;;;;;;;;;5014633;28;20409;-74
2022/08/29 02:44:29;;;;;;;0.20;0.20;;;;;;;;;;5014104;28;20482;-75
2022/08/29 02:46:55;;;;;;;0.30;0.30;;;;;;;;;;5014433;28;20400;-74
2022/08/29 02:49:21;;;;;;;0.25;0.25;;;;;;;;;;5015557;28;20022;-75
2022/08/29 02:51:47;;;;;;;0.20;0.20;;;;;;;;;;5015393;28;20380;-74
2022/08/29 02:54:13;;;;;;;0.20;0.20;;;;;;;;;;5015524;28;20099;-75
2022/08/29 02:56:39;;;;;;;0.20;0.20;;;;;;;;;;5015090;28;20478;-75
2022/08/29 02:59:07;;;;;;;0.20;0.20;;;;;;;;;;5015302;28;20041;-75
2022/08/29 03:01:33;;;;;;;0.43;0.43;;;;;;;;;;5015046;28;20157;-75
2022/08/29 03:03:59;;;;;;;17.25;3.25;;;;;;;;;;5009602;28;20033;-74
2022/08/29 03:06:25;;;;;;;0.30;0.30;;;;;;;;;;5011344;28;20025;-75
2022/08/29 03:08:51;;;;;;;0.40;0.40;;;;;;;;;;5019818;28;20033;-77
2022/08/29 03:11:17;;;;;;;0.45;0.40;;;;;;;;;;5024016;28;20026;-73
2022/08/29 03:13:43;;;;;;;0.30;0.30;;;;;;;;;;5020186;28;20032;-75
2022/08/29 03:16:09;;;;;;;0.75;0.75;;;;;;;;;;5010908;28;20384;-75
2022/08/29 03:18:35;;;;;;;0.22;0.22;;;;;;;;;;5011999;28;20036;-75
2022/08/29 03:21:01;;;;;;;0.30;0.30;;;;;;;;;;5012089;28;20018;-73
2022/08/29 03:23:27;;;;;;;0.30;0.30;;;;;;;;;;5011623;28;20030;-74
2022/08/29 03:25:53;;;;;;;0.30;0.30;;;;;;;;;;5011004;28;20048;-76
2022/08/29 03:28:20;;;;;;;0.38;0.38;;;;;;;;;;5011492;28;20030;-75
2022/08/29 03:30:46;;;;;;;0.20;0.20;;;;;;;;;;5010986;28;20374;-74
2022/08/29 03:33:12;;;;;;;0.30;0.30;;;;;;;;;;5011382;28;20026;-74
2022/08/29 03:35:38;;;;;;;0.28;0.28;;;;;;;;;;5011215;28;20351;-74
2022/08/29 03:38:04;;;;;;;0.20;0.20;;;;;;;;;;5010631;28;20528;-74
2022/08/29 03:40:30;;;;;;;0.28;0.28;;;;;;;;;;5025024;28;20045;-74
2022/08/29 03:42:56;;;;;;;1.05;1.05;;;;;;;;;;5050812;28;20060;-74
2022/08/29 03:45:22;;;;;;;4.10;3.92;;;;;;;;;;5050437;28;20119;-78
2022/08/29 03:47:50;;;;;;;0.20;0.20;;;;;;;;;;5016131;28;20037;-74
2022/08/29 03:50:18;;;;;;;0.30;0.30;;;;;;;;;;5050978;28;20040;-75
2022/08/29 03:52:44;;;;;;;0.20;0.20;;;;;;;;;;5050650;28;20025;-74
2022/08/29 03:55:11;;;;;;;0.20;0.20;;;;;;;;;;5050765;28;20029;-73
2022/08/29 03:57:37;;;;;;;3.38;0.85;;;;;;;;;;5050472;28;20025;-74
2022/08/29 04:00:09;;;;;;;2.15;2.00;;;;;;;;;;5050101;28;20029;-74
2022/08/29 04:02:37;;;;;;;0.25;0.25;;;;;;;;;;5049779;28;20072;-75
2022/08/29 04:05:06;;;;;;;0.30;0.30;;;;;;;;;;5050417;28;20033;-76
2022/08/29 04:07:47;;;;;;;0.35;0.35;;;;;;;;;;5049997;28;20029;-75
2022/08/29 04:10:15;;;;;;;0.22;0.22;;;;;;;;;;5049819;28;20043;-74
2022/08/29 04:12:42;;;;;;;0.20;0.20;;;;;;;;;;5049117;28;20033;-74
2022/08/29 04:15:08;;;;;;;0.20;0.20;;;;;;;;;;5049960;28;20059;-74
2022/08/29 04:17:35;;;;;;;0.30;0.30;;;;;;;;;;5049586;28;20041;-75
2022/08/29 04:20:01;;;;;;;0.20;0.20;;;;;;;;;;5049607;28;20112;-74
2022/08/29 04:22:27;;;;;;;1.10;1.10;;;;;;;;;;5049548;28;20036;-73
2022/08/29 04:24:53;;;;;;;0.30;0.30;;;;;;;;;;5049493;28;20029;-73
2022/08/29 04:27:19;;;;;;;0.20;0.20;;;;;;;;;;5049265;28;20038;-76
2022/08/29 04:29:47;;;;;;;0.20;0.20;;;;;;;;;;5049562;28;20113;-76
2022/08/29 04:32:13;;;;;;;0.85;0.68;;;;;;;;;;5031343;28;20033;-74
2022/08/29 04:34:39;;;;;;;0.17;0.17;;;;;;;;;;5049425;28;20029;-74
2022/08/29 04:37:05;;;;;;;0.22;0.22;;;;;;;;;;5049409;28;20051;-74
2022/08/29 04:39:33;;;;;;;0.20;0.20;;;;;;;;;;5049632;28;20059;-75
2022/08/29 04:41:59;;;;;;;0.25;0.25;;;;;;;;;;5048861;28;20396;-74
2022/08/29 04:44:26;;;;;;;0.30;0.30;;;;;;;;;;5049155;28;20527;-76
2022/08/29 04:46:52;;;;;;;0.20;0.20;;;;;;;;;;5049575;28;20079;-75
2022/08/29 04:49:20;;;;;;;0.20;0.20;;;;;;;;;;5031786;28;20025;-74
2022/08/29 04:51:46;;;;;;;2.58;1.55;;;;;;;;;;5049229;28;20037;-74
2022/08/29 04:54:12;;;;;;;0.20;0.20;;;;;;;;;;5049297;28;20353;-76
2022/08/29 04:56:38;;;;;;;0.20;0.20;;;;;;;;;;5049103;28;20369;-75
2022/08/29 04:59:04;;;;;;;0.20;0.20;;;;;;;;;;5031521;28;20549;-75
2022/08/29 05:01:30;;;;;;;7.53;1.52;;;;;;;;;;5048869;28;20033;-76
2022/08/29 05:03:57;;;;;;;0.30;0.30;;;;;;;;;;5049220;28;20029;-75
2022/08/29 05:06:24;;;;;;;0.20;0.20;;;;;;;;;;5048738;28;20041;-76
2022/08/29 05:08:51;;;;;;;0.28;0.28;;;;;;;;;;5048612;28;20536;-74
2022/08/29 05:11:18;;;;;;;0.55;0.55;;;;;;;;;;5048957;28;20108;-75
2022/08/29 05:13:45;;;;;;;0.28;0.28;;;;;;;;;;5031564;28;20033;-74
2022/08/29 05:16:12;;;;;;;0.20;0.20;;;;;;;;;;5049746;28;20170;-74
2022/08/29 05:18:38;;;;;;;0.20;0.20;;;;;;;;;;5049509;28;20071;-74
2022/08/29 05:21:04;;;;;;;0.28;0.28;;;;;;;;;;5049504;28;20029;-75
2022/08/29 05:23:30;;;;;;;0.30;0.30;;;;;;;;;;5049417;28;20021;-75
2022/08/29 05:25:58;;;;;;;0.20;0.20;;;;;;;;;;5049172;28;20037;-75
2022/08/29 05:28:24;;;;;;;0.20;0.20;;;;;;;;;;5048466;28;20029;-74
2022/08/29 05:30:50;;;;;;;0.20;0.20;;;;;;;;;;5053026;28;20033;-74
2022/08/29 05:33:16;;;;;;;0.20;0.20;;;;;;;;;;5035256;28;20033;-75
2022/08/29 05:35:43;;;;;;;0.20;0.20;;;;;;;;;;5053000;28;20376;-75
2022/08/29 05:38:09;;;;;;;0.30;0.30;;;;;;;;;;5052954;28;20024;-74
2022/08/29 05:40:34;;;;;;;0.30;0.30;;;;;;;;;;5050401;28;20045;-75
2022/08/29 05:43:00;;;;;;;0.20;0.20;;;;;;;;;;5050786;28;20021;-75
2022/08/29 05:45:26;;;;;;;0.20;0.20;;;;;;;;;;5032740;28;20535;-77
2022/08/29 05:47:52;;;;;;;0.85;0.85;;;;;;;;;;5050618;28;20028;-76
2022/08/29 05:50:18;;;;;;;0.30;0.30;;;;;;;;;;5050683;28;20033;-77
2022/08/29 05:52:44;;;;;;;0.30;0.30;;;;;;;;;;5050814;28;20029;-81
2022/08/29 05:55:10;;;;;;;0.20;0.20;;;;;;;;;;5034047;28;20087;-75
2022/08/29 05:57:37;;;;;;;0.20;0.20;;;;;;;;;;5034489;28;20025;-77
2022/08/29 06:00:05;;;;;;;0.20;0.20;;;;;;;;;;5052292;28;20029;-75
2022/08/29 06:02:38;;;;;;;0.20;0.20;;;;;;;;;;5052037;28;20037;-73
2022/08/29 06:05:04;;;;;;;0.20;0.20;;;;;;;;;;5052530;28;20086;-80
2022/08/29 06:07:31;;;;;;;0.50;0.50;;;;;;;;;;5052498;28;20139;-75
2022/08/29 06:09:57;;;;;;;0.20;0.20;;;;;;;;;;5034495;28;20032;-73
2022/08/29 06:12:23;;;;;;;0.60;0.60;;;;;;;;;;5052322;28;20103;-74
2022/08/29 06:14:49;;;;;;;0.20;0.20;;;;;;;;;;5052157;28;20099;-80
2022/08/29 06:17:14;;;;;;;0.20;0.20;;;;;;;;;;5052308;28;20017;-74
2022/08/29 06:19:40;;;;;;;0.20;0.20;;;;;;;;;;5052064;28;20082;-74
2022/08/29 06:22:07;;;;;;;0.30;0.30;;;;;;;;;;5052090;28;20056;-74
2022/08/29 06:24:32;;;;;;;0.20;0.20;;;;;;;;;;5052411;28;20124;-73
2022/08/29 06:26:59;;;;;;;0.28;0.28;;;;;;;;;;5052314;28;20429;-74
2022/08/29 06:29:25;;;;;;;0.20;0.20;;;;;;;;;;5052104;28;20037;-72
2022/08/29 06:31:51;;;;;;;0.20;0.20;;;;;;;;;;5051963;28;20166;-77
2022/08/29 06:34:17;;;;;;;0.30;0.30;;;;;;;;;;5051826;28;20425;-74
2022/08/29 06:36:42;;;;;;;0.20;0.20;;;;;;;;;;5050867;28;20017;-75
2022/08/29 06:39:09;;;;;;;0.20;0.20;;;;;;;;;;5050457;28;20021;-74
2022/08/29 06:41:35;;;;;;;0.20;0.20;;;;;;;;;;5051365;28;20049;-74
2022/08/29 06:44:02;;;;;;;0.30;0.30;;;;;;;;;;5051470;28;20043;-74
2022/08/29 06:46:41;;;;;;;0.20;0.20;;;;;;;;;;5051217;28;20028;-74
2022/08/29 06:49:07;;;;;;;0.30;0.30;;;;;;;;;;5051710;28;20025;-73
2022/08/29 06:51:37;;;;;;;0.20;0.20;;;;;;;;;;5051630;28;20040;-75
2022/08/29 06:54:03;;;;;;;0.22;0.22;;;;;;;;;;5051540;28;20035;-74
2022/08/29 06:56:29;;;;;;;0.32;0.32;;;;;;;;;;5051262;28;20061;-73
2022/08/29 06:58:55;;;;;;;0.20;0.20;;;;;;;;;;5051119;28;20110;-75
2022/08/29 07:01:21;;;;;;;0.30;0.30;;;;;;;;;;5051184;28;20488;-77
2022/08/29 07:03:47;;;;;;;0.30;0.30;;;;;;;;;;5051323;28;20476;-73
2022/08/29 07:06:13;;;;;;;1.33;1.33;;;;;;;;;;5033125;28;20036;-74
2022/08/29 07:08:38;;;;;;;0.30;0.30;;;;;;;;;;5033280;28;20483;-74
2022/08/29 07:11:04;;;;;;;0.85;0.85;;;;;;;;;;5040137;28;20026;-74
2022/08/29 07:13:30;;;;;;;0.30;0.30;;;;;;;;;;5039486;28;20109;-74
2022/08/29 07:15:56;;;;;;;0.20;0.20;;;;;;;;;;5038898;28;20116;-76
2022/08/29 07:18:22;;;;;;;0.20;0.20;;;;;;;;;;5038063;28;20112;-74
2022/08/29 07:20:48;;;;;;;0.30;0.30;;;;;;;;;;5030622;28;20025;-74
2022/08/29 07:23:13;;;;;;;0.20;0.20;;;;;;;;;;5031125;28;20034;-80
2022/08/29 07:25:38;;;;;;;0.30;0.30;;;;;;;;;;5048637;28;20496;-77
2022/08/29 07:28:05;;;;;;;0.30;0.30;;;;;;;;;;5051080;28;20025;-73
2022/08/29 07:30:31;;;;;;;0.30;0.30;;;;;;;;;;5050828;28;20057;-73
2022/08/29 07:32:57;;;;;;;0.30;0.30;;;;;;;;;;5050815;28;20032;-73
2022/08/29 07:35:24;;;;;;;0.25;0.25;;;;;;;;;;5050717;28;20376;-74
2022/08/29 07:37:50;;;;;;;0.30;0.30;;;;;;;;;;5050464;28;20044;-77
2022/08/29 07:40:19;;;;;;;0.35;0.35;;;;;;;;;;5032625;28;20053;-74
2022/08/29 07:42:44;;;;;;;0.40;0.40;;;;;;;;;;5050209;28;20114;-73
2022/08/29 07:45:10;;;;;;;0.30;0.30;;;;;;;;;;5064635;28;20068;-76
2022/08/29 07:47:36;;;;;;;0.40;0.40;;;;;;;;;;5071990;28;20055;-78
2022/08/29 07:50:05;;;;;;;0.32;0.32;;;;;;;;;;5071082;28;20049;-82
2022/08/29 07:52:30;;;;;;;0.30;0.30;;;;;;;;;;5051694;28;20037;-79
2022/08/29 07:54:56;;;;;;;0.30;0.30;;;;;;;;;;5052106;28;20033;-74
2022/08/29 07:57:22;;;;;;;0.70;0.70;;;;;;;;;;5051019;28;20057;-74
2022/08/29 07:59:47;;;;;;;0.40;0.40;;;;;;;;;;5050576;28;20036;-73
2022/08/29 08:02:13;;;;;;;0.40;0.40;;;;;;;;;;5050589;28;20445;-75
2022/08/29 08:04:38;;;;;;;0.30;0.30;;;;;;;;;;5050218;28;20115;-73
2022/08/29 08:07:04;;;;;;;0.40;0.40;;;;;;;;;;5032945;28;20032;-74
2022/08/29 08:09:29;;;;;;;0.40;0.40;;;;;;;;;;5050409;28;20083;-75
2022/08/29 08:11:55;;;;;;;0.40;0.40;;;;;;;;;;5050516;28;20485;-75
2022/08/29 08:14:20;;;;;;;0.30;0.30;;;;;;;;;;5050420;28;20122;-73
2022/08/29 08:16:46;;;;;;;0.30;0.30;;;;;;;;;;5050113;28;20607;-74
2022/08/29 08:19:12;;;;;;;0.40;0.40;;;;;;;;;;5050486;28;20391;-74
2022/08/29 08:21:38;;;;;;;0.60;0.60;;;;;;;;;;5050148;28;20389;-80
2022/08/29 08:24:03;;;;;;;0.32;0.32;;;;;;;;;;5050514;28;20033;-72
2022/08/29 08:26:29;;;;;;;0.95;0.50;;;;;;;;;;5049921;28;20040;-75
2022/08/29 08:28:55;;;;;;;0.40;0.40;;;;;;;;;;5049983;28;20040;-74
2022/08/29 08:31:21;;;;;;;0.35;0.35;;;;;;;;;;5050325;28;20029;-80
2022/08/29 08:33:47;;;;;;;0.45;0.45;;;;;;;;;;5050562;28;20068;-74
2022/08/29 08:36:13;;;;;;;0.50;0.50;;;;;;;;;;5032530;28;20024;-74
2022/08/29 08:38:39;;;;;;;0.40;0.40;;;;;;;;;;5031837;28;20025;-73
2022/08/29 08:41:09;;;;;;;0.40;0.40;;;;;;;;;;5049548;28;20239;-74
2022/08/29 08:43:53;;;;;;;0.60;0.60;;;;;;;;;;5049837;28;20103;-73
2022/08/29 08:46:32;;;;;;;0.30;0.30;;;;;;;;;;5032360;28;20044;-73
2022/08/29 08:49:00;;;;;;;0.30;0.30;;;;;;;;;;5049966;28;20020;-75
2022/08/29 08:51:29;;;;;;;0.82;0.82;;;;;;;;;;5064742;28;20041;-77
2022/08/29 08:53:56;;;;;;;0.32;0.32;;;;;;;;;;5069487;28;20020;-77
2022/08/29 08:56:36;;;;;;;0.40;0.40;;;;;;;;;;5069753;28;20032;-74
2022/08/29 08:59:04;;;;;;;0.47;0.47;;;;;;;;;;5067902;28;20431;-79
2022/08/29 09:01:38;;;;;;;0.38;0.38;;;;;;;;;;5068069;28;20116;-75
2022/08/29 09:04:07;;;;;;;0.40;0.40;;;;;;;;;;5070642;28;20468;-74
2022/08/29 09:06:32;;;;;;;;;;;;;;;;;;5071875;28;20077;-80
2022/08/29 09:09:11;;;;;;;0.40;0.40;;;;;;;;;;5071842;28;19999;-75
2022/08/29 09:11:55;;;;;;;0.38;0.38;;;;;;;;;;5071596;28;20305;-76
2022/08/29 09:14:33;;;;;;;0.30;0.30;;;;;;;;;;5072837;28;20033;-74
2022/08/29 09:16:59;;;;;;;0.30;0.30;;;;;;;;;;5073623;28;20020;-74
2022/08/29 09:19:25;;;;;;;0.30;0.30;;;;;;;;;;5073654;28;20025;-75
2022/08/29 09:21:54;;;;;;;0.30;0.30;;;;;;;;;;5073312;28;20036;-74
2022/08/29 09:24:23;;;;;;;0.40;0.40;;;;;;;;;;5073118;28;20025;-74
2022/08/29 09:26:48;;;;;;;0.50;0.50;;;;;;;;;;5073169;28;20067;-75
2022/08/29 09:29:19;;;;;;;0.50;0.50;;;;;;;;;;5073146;28;20055;-74
2022/08/29 09:32:02;;;;;;;0.35;0.35;;;;;;;;;;5073084;28;20036;-74
2022/08/29 09:34:36;;;;;;;0.40;0.40;;;;;;;;;;5072969;28;20107;-74
2022/08/29 09:37:03;;;;;;;0.38;0.38;;;;;;;;;;5073448;28;20491;-74
2022/08/29 09:39:32;;;;;;;0.30;0.30;;;;;;;;;;5038129;28;20114;-73
2022/08/29 09:41:57;;;;;;;;;;;;;;;;;;5073123;28;20045;-74
2022/08/29 09:44:23;;;;;;;0.32;0.32;;;;;;;;;;5072507;28;19915;-78
2022/08/29 09:47:02;;;;;;;0.40;0.40;;;;;;;;;;5073089;28;20491;-75
2022/08/29 09:49:28;;;;;;;0.40;0.40;;;;;;;;;;5072544;28;20486;-74
2022/08/29 09:52:06;;;;;;;0.32;0.32;;;;;;;;;;5072274;28;20056;-74
2022/08/29 09:54:31;;;;;;;0.43;0.43;;;;;;;;;;5072437;28;20063;-75
2022/08/29 09:56:59;;;;;;;0.50;0.50;;;;;;;;;;5072464;28;20020;-74
2022/08/29 09:59:32;;;;;;;0.40;0.40;;;;;;;;;;5072272;28;20020;-74
2022/08/29 10:02:27;;;;;;;0.40;0.40;;;;;;;;;;5054550;28;20040;-74
2022/08/29 10:04:55;;;;;;;0.63;0.63;;;;;;;;;;5050709;28;20091;-73
2022/08/29 10:07:25;;;;;;;4.00;2.00;;;;;;;;;;5072550;28;20032;-74
2022/08/29 10:09:56;;;;;;;0.52;0.52;;;;;;;;;;5072332;28;20029;-74
2022/08/29 10:12:42;;;;;;;0.60;0.60;;;;;;;;;;5071401;28;20055;-75
2022/08/29 10:15:10;;;;;;;0.55;0.43;;;;;;;;;;5053668;28;20428;-74
2022/08/29 10:20:28;;;;;;;2.35;1.40;;;;;;;;;;5072176;28;20037;-74
2022/08/29 10:22:59;;;;;;;0.47;0.47;;;;;;;;;;5072202;28;20037;-74
2022/08/29 10:25:31;;;;;;;0.50;0.50;;;;;;;;;;5072416;28;20040;-73
2022/08/29 10:28:13;;;;;;;0.50;0.50;;;;;;;;;;5072062;28;20024;-74
2022/08/29 10:30:43;;;;;;;2.58;0.93;;;;;;;;;;5071404;28;20071;-75
2022/08/29 10:33:29;;;;;;;0.47;0.47;;;;;;;;;;5071619;28;20070;-74
2022/08/29 10:35:57;;;;;;;0.52;0.52;;;;;;;;;;5072059;28;20086;-73
2022/08/29 10:38:22;;;;;;;0.70;0.70;;;;;;;;;;5072006;28;20046;-81
2022/08/29 10:40:51;;;;;;;1.00;0.80;;;;;;;;;;5071988;28;20063;-73
2022/08/29 10:43:35;;;;;;;0.50;0.50;;;;;;;;;;5054074;28;20031;-74
2022/08/29 10:46:10;;;;;;;1.00;0.90;;;;;;;;;;5071691;28;20049;-74
2022/08/29 10:48:44;;;;;;;1.38;0.70;;;;;;;;;;5071292;28;20229;-74
2022/08/29 10:51:16;;;;;;;4.07;1.40;;;;;;;;;;5071344;28;20078;-72
2022/08/29 10:53:47;;;;;;;1.25;1.05;;;;;;;;;;5071656;28;20031;-75
2022/08/29 10:56:20;;;;;;;1.73;1.30;;;;;;;;;;5071809;28;20957;-74
2022/08/29 10:58:55;;;;;;;2.35;0.70;;;;;;;;;;5053559;28;20032;-73
2022/08/29 11:04:53;;;;;;;2.70;1.60;;;;;;;;;;5070733;28;20070;-74
2022/08/29 11:07:28;;;;;;;1.88;1.30;;;;;;;;;;5071150;28;20031;-73
2022/08/29 11:09:58;;;;;;;1.98;1.00;;;;;;;;;;5036744;28;20174;-73
2022/08/29 11:12:23;;;;;;;;;;;;;;;;;;5071363;28;20032;-74
2022/08/29 11:15:04;;;;;;;0.50;0.50;;;;;;;;;;5070882;28;19908;-75
2022/08/29 11:17:33;;;;;;;2.53;1.10;;;;;;;;;;5071234;28;20028;-74
2022/08/29 11:20:10;;;;;;;2.42;1.60;;;;;;;;;;5070997;28;20086;-73
2022/08/29 11:22:48;;;;;;;2.88;1.45;;;;;;;;;;5070522;28;20117;-74
2022/08/29 11:25:14;;;;;;;0.80;0.80;;;;;;;;;;5052689;28;20033;-74
2022/08/29 11:27:44;;;;;;;1.00;0.60;;;;;;;;;;5070105;28;20029;-74
2022/08/29 11:30:18;;;;;;;6.85;1.50;;;;;;;;;;5070430;28;20053;-74
2022/08/29 11:33:03;;;;;;;1.60;1.20;;;;;;;;;;5070510;28;20040;-74
2022/08/29 11:35:41;;;;;;;3.75;1.70;;;;;;;;;;5070524;28;20036;-79
2022/08/29 11:38:25;;;;;;;2.37;1.50;;;;;;;;;;5070609;28;20039;-74
2022/08/29 11:40:50;;;;;;;3.30;1.85;;;;;;;;;;5070318;28;20143;-80
2022/08/29 11:43:18;;;;;;;3.17;2.33;;;;;;;;;;5070377;28;20547;-74
2022/08/29 11:45:52;;;;;;;1.80;1.42;;;;;;;;;;5070234;28;20538;-74
2022/08/29 11:48:29;;;;;;;0.95;0.88;;;;;;;;;;5070528;28;20036;-75
2022/08/29 11:50:54;;;;;;;4.03;1.95;;;;;;;;;;5070172;28;20089;-74
2022/08/29 11:53:23;;;;;;;6.15;1.10;;;;;;;;;;5070141;28;20438;-75
2022/08/29 11:56:07;;;;;;;3.22;1.23;;;;;;;;;;5052189;28;20177;-74
2022/08/29 11:58:34;;;;;;;2.08;1.30;;;;;;;;;;5051984;28;20021;-74
2022/08/29 12:01:00;;;;;;;1.20;1.00;;;;;;;;;;5069973;28;20033;-77
2022/08/29 12:03:31;;;;;;;1.02;0.93;;;;;;;;;;5069930;28;20024;-74
2022/08/29 12:06:05;;;;;;;3.15;1.13;;;;;;;;;;5069906;28;20048;-74
2022/08/29 12:08:40;;;;;;;1.02;0.75;;;;;;;;;;5069369;28;20024;-74
2022/08/29 12:11:05;;;;;;;2.65;1.35;;;;;;;;;;5070490;28;20064;-73
2022/08/29 12:13:43;;;;;;;2.47;1.20;;;;;;;;;;5051903;28;20063;-74
2022/08/29 12:16:08;;;;;;;2.83;1.73;;;;;;;;;;5068050;28;20033;-75
2022/08/29 12:18:38;;;;;;;2.50;0.90;;;;;;;;;;5067897;28;20034;-79
2022/08/29 12:21:24;;;;;;;2.30;1.08;;;;;;;;;;5050351;28;20042;-75
2022/08/29 12:23:49;;;;;;;1.38;0.85;;;;;;;;;;5068379;28;20033;-77
2022/08/29 12:26:33;;;;;;;1.10;0.90;;;;;;;;;;5068943;28;20040;-74
2022/08/29 12:29:00;;;;;;;1.13;0.98;;;;;;;;;;5068296;28;20032;-76
2022/08/29 12:31:53;;;;;;;1.60;0.65;;;;;;;;;;5068809;28;20071;-76
2022/08/29 12:34:28;;;;;;;1.00;0.90;;;;;;;;;;5069237;28;20031;-75
2022/08/29 12:37:05;;;;;;;1.58;1.17;;;;;;;;;;5069966;28;20028;-74
2022/08/29 12:39:33;;;;;;;2.28;0.95;;;;;;;;;;5067604;28;20028;-75
2022/08/29 12:42:22;;;;;;;1.77;1.10;;;;;;;;;;5067539;28;20045;-75
2022/08/29 12:44:57;;;;;;;1.27;1.02;;;;;;;;;;5038987;28;20037;-78
2022/08/29 12:47:26;;;;;;;1.40;0.85;;;;;;;;;;5050241;28;20033;-76
2022/08/29 12:49:54;;;;;;;1.50;0.90;;;;;;;;;;5067868;28;20468;-75
2022/08/29 12:52:23;;;;;;;4.78;1.58;;;;;;;;;;5049491;28;20029;-76
2022/08/29 12:54:49;;;;;;;4.00;1.63;;;;;;;;;;5067639;28;20054;-75
2022/08/29 12:57:19;;;;;;;1.52;1.17;;;;;;;;;;5067776;28;20021;-74
2022/08/29 12:59:46;;;;;;;2.53;0.90;;;;;;;;;;5067409;28;20037;-74
2022/08/29 13:02:22;;;;;;;3.13;1.35;;;;;;;;;;5067907;28;20422;-75
2022/08/29 13:04:48;;;;;;;1.95;0.88;;;;;;;;;;5067254;28;20025;-77
2022/08/29 13:07:17;;;;;;;2.75;1.20;;;;;;;;;;5067673;28;20679;-75
2022/08/29 13:09:47;;;;;;;7.78;1.02;;;;;;;;;;5067668;28;20017;-75
2022/08/29 13:12:13;;;;;;;1.30;1.15;;;;;;;;;;5067286;28;20059;-76
2022/08/29 13:14:49;;;;;;;9.48;1.40;;;;;;;;;;5067152;28;20028;-77
2022/08/29 13:17:16;;;;;;;0.40;0.40;;;;;;;;;;5067157;28;20036;-76
2022/08/29 13:20:02;;;;;;;4.32;1.42;;;;;;;;;;5067445;28;20009;-76
2022/08/29 13:22:28;;;;;;;2.47;1.02;;;;;;;;;;5067377;28;20058;-77
2022/08/29 13:25:14;;;;;;;1.17;0.90;;;;;;;;;;5067531;28;20036;-74
2022/08/29 13:27:39;;;;;;;0.93;0.80;;;;;;;;;;5048924;28;20403;-74
2022/08/29 13:30:06;;;;;;;1.25;1.08;;;;;;;;;;5049132;28;20033;-75
2022/08/29 13:32:31;;;;;;;2.55;1.23;;;;;;;;;;5049185;28;20017;-76
2022/08/29 13:35:26;;;;;;;4.00;1.40;;;;;;;;;;5067742;28;20422;-77
2022/08/29 13:38:16;;;;;;;2.58;1.27;;;;;;;;;;5045685;28;20033;-74
2022/08/29 13:40:52;;;;;;;2.15;1.23;;;;;;;;;;5066465;28;20059;-77
2022/08/29 13:43:40;;;;;;;1.25;1.13;;;;;;;;;;5066822;28;20028;-76
2022/08/29 13:46:11;;;;;;;2.88;1.13;;;;;;;;;;5042311;28;20060;-80
2022/08/29 13:48:37;;;;;;;2.70;1.05;;;;;;;;;;5027100;28;20381;-80
2022/08/29 13:51:02;;;;;;;0.60;0.60;;;;;;;;;;5029932;28;20037;-75
2022/08/29 13:53:29;;;;;;;2.20;1.50;;;;;;;;;;5030217;28;20029;-74
2022/08/29 13:55:54;;;;;;;2.50;1.40;;;;;;;;;;5030583;28;20491;-75
2022/08/29 13:58:20;;;;;;;8.57;2.10;;;;;;;;;;5030642;28;20069;-74
2022/08/29 14:00:46;;;;;;;0.60;0.60;;;;;;;;;;5030561;28;20385;-76
2022/08/29 14:03:15;;;;;;;0.50;0.50;;;;;;;;;;5031063;28;20037;-75
2022/08/29 14:05:41;;;;;;;0.65;0.65;;;;;;;;;;5030294;28;20171;-75
2022/08/29 14:08:06;;;;;;;2.17;1.30;;;;;;;;;;5030528;28;20112;-82
2022/08/29 14:10:32;;;;;;;1.38;0.95;;;;;;;;;;5012319;28;20037;-77
2022/08/29 14:12:57;;;;;;;1.05;0.75;;;;;;;;;;5030639;28;20018;-75
2022/08/29 14:15:22;;;;;;;2.65;1.10;;;;;;;;;;5030502;28;20033;-79
2022/08/29 14:17:48;;;;;;;0.65;0.65;;;;;;;;;;5030255;28;20044;-76
2022/08/29 14:20:15;;;;;;;1.63;1.27;;;;;;;;;;5030058;28;20034;-75
2022/08/29 14:22:42;;;;;;;1.67;1.15;;;;;;;;;;5012072;28;20022;-77
2022/08/29 14:25:08;;;;;;;0.90;0.90;;;;;;;;;;5029912;28;20123;-77
2022/08/29 14:27:35;;;;;;;10.70;1.30;;;;;;;;;;5029732;28;20053;-76
2022/08/29 14:30:00;;;;;;;3.67;1.60;;;;;;;;;;5029972;28;20135;-79
2022/08/29 14:32:26;;;;;;;0.90;0.73;;;;;;;;;;5012108;28;20542;-78
2022/08/29 14:34:51;;;;;;;2.28;1.45;;;;;;;;;;5030009;28;20037;-79
2022/08/29 14:37:17;;;;;;;1.00;0.90;;;;;;;;;;5029853;28;20021;-77
2022/08/29 14:39:43;;;;;;;0.90;0.50;;;;;;;;;;5029360;28;20029;-78
2022/08/29 14:42:08;;;;;;;1.77;1.15;;;;;;;;;;5029600;28;20049;-81
2022/08/29 14:44:34;;;;;;;1.95;1.17;;;;;;;;;;5029428;28;20033;-77
2022/08/29 14:46:59;;;;;;;2.78;1.13;;;;;;;;;;5012042;28;20030;-77
2022/08/29 14:49:25;;;;;;;4.50;1.58;;;;;;;;;;5029735;28;20389;-77
2022/08/29 14:51:52;;;;;;;2.17;1.10;;;;;;;;;;5029327;28;20125;-76
2022/08/29 14:54:19;;;;;;;4.07;1.42;;;;;;;;;;5029731;28;20120;-81
2022/08/29 14:56:45;;;;;;;5.05;1.02;;;;;;;;;;5029622;28;20117;-76
2022/08/29 14:59:11;;;;;;;1.20;0.77;;;;;;;;;;5029817;28;20024;-75